Gay Head, Massachusetts
Current Conditions -  °F | °C
As of 4:53 AM on Sunday 21 Dec 2014 (Local Time) from KMVY Reporting Station
Overcast Overcast  
Wind Chill: 31°   Ceiling: 2700
Heat Index: 38°   Visibility: 10mi
Dew Point: 32°   Wind: 9mph
Humidity: 79%   Direction: 50°NE
Pressure: 30.24"   Gusts: NA
Location:  41.3536°N, 70.7417°W
Report Text: KMVY 210953Z AUTO 05008KT 10SM OVC027 03/00 A3024 RMK AO2 SLP239 T00330000
Loading
Personal Weather Stations






























Interactive Weather Map New forecast layout! Learn more

10-Day Weather Forecast

Advertisements
Track Severe Weather on mobile